createdAt,value
2019-03-23T00:02:14.630Z,7.60
2019-03-23T00:04:45.278Z,7.50
2019-03-23T00:07:15.894Z,7.50
2019-03-23T00:09:46.489Z,7.40
2019-03-23T00:12:17.090Z,7.40
2019-03-23T00:14:47.762Z,7.40
2019-03-23T00:17:18.315Z,7.30
2019-03-23T00:19:48.926Z,7.30
2019-03-23T00:22:19.522Z,7.30
2019-03-23T00:24:50.155Z,7.30
2019-03-23T00:27:20.837Z,7.30
2019-03-23T00:29:51.437Z,7.30
2019-03-23T00:32:22.145Z,7.30
2019-03-23T00:34:52.767Z,7.20
2019-03-23T00:37:23.394Z,7.20
2019-03-23T00:39:53.981Z,7.10
2019-03-23T00:42:24.534Z,7.10
2019-03-23T00:47:37.128Z,7.00
2019-03-23T00:50:07.998Z,7.00
2019-03-23T00:52:38.731Z,7.00
2019-03-23T00:55:09.563Z,6.90
2019-03-23T00:57:40.228Z,6.90
2019-03-23T01:00:11.385Z,6.80
2019-03-23T01:02:42.203Z,6.80
2019-03-23T01:05:13.326Z,6.90
2019-03-23T01:07:44.090Z,6.90
2019-03-23T01:10:15.171Z,6.80
2019-03-23T01:12:45.845Z,6.80
2019-03-23T01:15:16.485Z,6.70
2019-03-23T01:17:47.105Z,6.70
2019-03-23T01:20:19.019Z,6.60
2019-03-23T01:22:49.662Z,6.60
2019-03-23T01:25:20.955Z,6.60
2019-03-23T01:27:51.787Z,6.60
2019-03-23T01:30:22.471Z,6.50
2019-03-23T01:32:53.159Z,6.40
2019-03-23T01:35:23.872Z,6.40
2019-03-23T01:37:54.553Z,6.40
2019-03-23T01:40:25.364Z,6.40
2019-03-23T01:42:55.933Z,6.30
2019-03-23T01:45:26.507Z,6.30
2019-03-23T01:47:57.051Z,6.20
2019-03-23T01:50:28.749Z,6.20
2019-03-23T01:52:59.262Z,6.20
2019-03-23T01:55:29.815Z,6.20
2019-03-23T01:58:00.361Z,6.10
2019-03-23T02:00:36.451Z,6.10
2019-03-23T02:03:07.004Z,6.10
2019-03-23T02:05:37.558Z,6.00
2019-03-23T02:08:08.082Z,6.00
2019-03-23T02:10:38.649Z,5.90
2019-03-23T02:13:09.191Z,5.90
2019-03-23T02:15:39.757Z,5.80
2019-03-23T02:18:10.371Z,5.80
2019-03-23T02:20:41.307Z,5.80
2019-03-23T02:23:11.824Z,5.70
2019-03-23T02:25:42.354Z,5.70
2019-03-23T02:28:12.858Z,5.70
2019-03-23T02:30:44.486Z,5.70
2019-03-23T02:35:57.232Z,5.60
2019-03-23T02:38:28.746Z,5.60
2019-03-23T02:40:59.362Z,5.60
2019-03-23T02:43:29.872Z,5.60
2019-03-23T02:46:00.416Z,5.50
2019-03-23T02:48:31.999Z,5.50
2019-03-23T02:51:02.569Z,5.50
2019-03-23T02:53:33.207Z,5.50
2019-03-23T02:56:03.834Z,5.50
2019-03-23T02:58:34.430Z,5.40
2019-03-23T03:01:05.166Z,5.40
2019-03-23T03:03:36.829Z,5.30
2019-03-23T03:06:07.388Z,5.30
2019-03-23T03:08:37.908Z,5.30
2019-03-23T03:11:08.488Z,5.30
2019-03-23T03:13:39.097Z,5.20
2019-03-23T03:16:09.709Z,5.20
2019-03-23T03:18:40.227Z,5.20
2019-03-23T03:21:11.127Z,5.20
2019-03-23T03:23:41.648Z,5.10
2019-03-23T03:26:12.232Z,5.10
2019-03-23T03:28:42.751Z,5.10
2019-03-23T03:31:13.297Z,5.00
2019-03-23T03:33:43.864Z,5.00
2019-03-23T03:36:14.443Z,5.00
2019-03-23T03:38:44.950Z,5.00
2019-03-23T03:41:15.490Z,5.00
2019-03-23T03:43:46.007Z,4.90
2019-03-23T03:46:16.553Z,4.90
2019-03-23T03:48:47.078Z,4.80
2019-03-23T03:51:17.615Z,4.80
2019-03-23T03:53:48.149Z,4.80
2019-03-23T03:56:18.783Z,4.80
2019-03-23T03:58:49.330Z,4.80
2019-03-23T04:01:19.923Z,4.70
2019-03-23T04:03:50.450Z,4.70
2019-03-23T04:06:21.015Z,4.70
2019-03-23T04:08:51.524Z,4.60
2019-03-23T04:11:22.139Z,4.60
2019-03-23T04:13:52.674Z,4.60
2019-03-23T04:16:23.207Z,4.60
2019-03-23T04:18:53.741Z,4.60
2019-03-23T04:21:24.357Z,4.50
2019-03-23T04:23:54.871Z,4.50
2019-03-23T04:26:25.414Z,4.50
2019-03-23T04:28:55.939Z,4.50
2019-03-23T04:31:26.540Z,4.50
2019-03-23T04:33:57.071Z,4.40
2019-03-23T04:36:27.688Z,4.40
2019-03-23T04:38:58.191Z,4.50
2019-03-23T04:41:29.046Z,4.40
2019-03-23T04:43:59.550Z,4.40
2019-03-23T04:46:30.105Z,4.40
2019-03-23T04:49:00.608Z,4.30
2019-03-23T04:51:31.150Z,4.30
2019-03-23T04:54:01.676Z,4.30
2019-03-23T04:56:32.318Z,4.20
2019-03-23T04:59:02.836Z,4.20
2019-03-23T05:01:33.404Z,4.20
2019-03-23T05:04:04.042Z,4.20
2019-03-23T05:06:34.586Z,4.20
2019-03-23T05:09:07.289Z,4.20
2019-03-23T05:11:37.878Z,4.20
2019-03-23T05:14:08.448Z,4.20
2019-03-23T05:16:38.977Z,4.20
2019-03-23T05:19:09.482Z,4.20
2019-03-23T05:21:40.130Z,4.10
2019-03-23T05:24:10.651Z,4.10
2019-03-23T05:26:41.194Z,4.10
2019-03-23T05:29:11.691Z,4.10
2019-03-23T05:31:42.322Z,4.10
2019-03-23T05:34:12.882Z,4.00
2019-03-23T05:36:43.495Z,4.10
2019-03-23T05:39:14.095Z,4.10
2019-03-23T05:41:44.633Z,4.10
2019-03-23T05:44:15.155Z,4.10
2019-03-23T05:46:45.721Z,4.20
2019-03-23T05:49:16.229Z,4.20
2019-03-23T05:51:46.773Z,4.20
2019-03-23T05:54:17.297Z,4.30
2019-03-23T05:56:47.859Z,4.30
2019-03-23T05:59:18.375Z,4.30
2019-03-23T06:01:49.106Z,4.30
2019-03-23T06:04:19.626Z,4.30
2019-03-23T06:06:50.179Z,4.30
2019-03-23T06:09:20.694Z,4.40
2019-03-23T06:11:51.231Z,4.40
2019-03-23T06:14:21.842Z,4.50
2019-03-23T06:16:52.466Z,4.50
2019-03-23T06:19:22.970Z,4.60
2019-03-23T06:21:53.558Z,4.60
2019-03-23T06:24:35.503Z,4.70
2019-03-23T06:27:06.735Z,4.80
2019-03-23T06:29:37.374Z,4.90
2019-03-23T06:32:09.291Z,5.00
2019-03-23T06:34:40.063Z,5.10
2019-03-23T06:37:10.762Z,5.20
2019-03-23T06:39:41.724Z,5.30
2019-03-23T06:42:12.623Z,5.30
2019-03-23T06:44:43.668Z,5.40
2019-03-23T06:47:14.298Z,5.50
2019-03-23T06:49:44.956Z,5.60
2019-03-23T06:52:15.553Z,5.60
2019-03-23T06:54:46.481Z,5.70
2019-03-23T06:57:17.806Z,5.80
2019-03-23T06:59:48.599Z,5.90
2019-03-23T07:02:20.067Z,6.00
2019-03-23T07:04:51.175Z,6.00
2019-03-23T07:07:22.158Z,6.20
2019-03-23T07:09:53.466Z,6.30
2019-03-23T07:12:24.201Z,6.40
2019-03-23T07:14:54.773Z,6.50
2019-03-23T07:17:27.074Z,6.60
2019-03-23T07:19:58.573Z,6.70
2019-03-23T07:22:29.524Z,6.90
2019-03-23T07:25:00.327Z,7.00
2019-03-23T07:27:31.743Z,7.20
2019-03-23T07:30:01.148Z,7.40
2019-03-23T07:32:31.385Z,7.50
2019-03-23T07:35:00.607Z,7.70
2019-03-23T07:37:29.879Z,7.80
2019-03-23T07:40:00.901Z,7.80
2019-03-23T07:42:30.078Z,7.90
2019-03-23T07:44:59.690Z,8.10
2019-03-23T07:47:29.492Z,8.20
2019-03-23T07:50:00.649Z,8.40
2019-03-23T07:52:29.846Z,8.60
2019-03-23T07:55:01.226Z,8.70
2019-03-23T07:57:31.997Z,8.80
2019-03-23T08:00:02.750Z,9.30
2019-03-23T08:02:32.818Z,11.10
2019-03-23T08:05:02.102Z,13.40
2019-03-23T08:07:31.927Z,15.80
2019-03-23T08:10:02.681Z,17.00
2019-03-23T08:12:33.512Z,17.50
2019-03-23T08:15:03.009Z,17.80
2019-03-23T08:17:32.142Z,18.60
2019-03-23T08:20:02.021Z,18.90
2019-03-23T08:22:32.548Z,19.50
2019-03-23T08:25:01.929Z,19.10
2019-03-23T08:27:31.540Z,19.30
2019-03-23T08:30:00.814Z,19.80
2019-03-23T08:32:32.723Z,20.00
2019-03-23T08:35:02.376Z,20.60
2019-03-23T08:37:32.596Z,21.10
2019-03-23T08:40:01.914Z,20.90
2019-03-23T08:42:35.011Z,20.30
2019-03-23T08:45:04.869Z,20.50
2019-03-23T08:47:34.151Z,20.50
2019-03-23T08:50:06.330Z,20.40
2019-03-23T08:52:35.909Z,20.70
2019-03-23T08:55:05.727Z,21.00
2019-03-23T08:57:35.071Z,21.00
2019-03-23T09:00:06.879Z,20.60
2019-03-23T09:02:37.970Z,20.70
2019-03-23T09:05:09.045Z,20.20
2019-03-23T09:07:39.379Z,21.00
2019-03-23T09:10:09.092Z,20.80
2019-03-23T09:12:38.944Z,20.80
2019-03-23T09:15:08.799Z,21.40
2019-03-23T09:17:38.370Z,21.20
2019-03-23T09:20:08.682Z,20.40
2019-03-23T09:22:37.911Z,20.20
2019-03-23T09:25:07.377Z,20.20
2019-03-23T09:27:37.293Z,21.10
2019-03-23T09:30:07.351Z,21.60
2019-03-23T09:32:36.954Z,20.90
2019-03-23T09:35:06.423Z,20.30
2019-03-23T09:37:38.193Z,20.00
2019-03-23T09:40:11.190Z,20.80
2019-03-23T09:42:37.825Z,21.30
2019-03-23T09:45:07.539Z,21.40
2019-03-23T09:47:36.780Z,21.70
2019-03-23T09:50:06.646Z,22.10
2019-03-23T09:52:36.169Z,22.10
2019-03-23T09:55:06.757Z,22.90
2019-03-23T09:57:36.045Z,22.70
2019-03-23T10:00:07.089Z,22.60
2019-03-23T10:02:36.369Z,22.30
2019-03-23T10:05:07.025Z,21.80
2019-03-23T10:07:36.977Z,21.50
2019-03-23T10:10:06.427Z,21.30
2019-03-23T10:12:35.602Z,21.20
2019-03-23T10:15:05.537Z,21.40
2019-03-23T10:17:35.235Z,21.90
2019-03-23T10:20:05.543Z,21.80
2019-03-23T10:22:35.268Z,22.00
2019-03-23T10:25:04.838Z,22.10
2019-03-23T10:27:34.695Z,22.00
2019-03-23T10:30:04.032Z,21.70
2019-03-23T10:32:33.564Z,21.50
2019-03-23T10:35:02.867Z,21.70
2019-03-23T10:37:32.595Z,21.70
2019-03-23T10:40:02.340Z,22.00
2019-03-23T10:42:32.002Z,22.60
2019-03-23T10:45:01.289Z,23.30
2019-03-23T10:47:31.663Z,22.10
2019-03-23T10:50:01.753Z,21.00
2019-03-23T10:52:31.802Z,19.90
2019-03-23T10:55:01.266Z,19.30
2019-03-23T10:57:30.782Z,18.80
2019-03-23T11:00:00.299Z,18.50
2019-03-23T11:02:29.628Z,18.60
2019-03-23T11:04:59.173Z,18.20
2019-03-23T11:07:28.378Z,18.00
2019-03-23T11:09:57.849Z,18.00
2019-03-23T11:12:29.593Z,18.00
2019-03-23T11:14:59.176Z,17.80
2019-03-23T11:17:30.107Z,18.10
2019-03-23T11:19:59.827Z,18.20
2019-03-23T11:22:31.571Z,18.30
2019-03-23T11:25:01.253Z,18.20
2019-03-23T11:27:30.948Z,18.20
2019-03-23T11:30:00.339Z,18.00
2019-03-23T11:32:29.914Z,17.90
2019-03-23T11:34:59.537Z,18.00
2019-03-23T11:37:28.962Z,18.10
2019-03-23T11:39:59.055Z,18.00
2019-03-23T11:42:28.735Z,18.30
2019-03-23T11:44:58.744Z,18.50
2019-03-23T11:47:28.060Z,18.80
2019-03-23T11:49:57.529Z,18.90
2019-03-23T11:52:27.061Z,18.90
2019-03-23T11:54:56.333Z,18.90
2019-03-23T11:57:25.743Z,19.00
2019-03-23T11:59:55.740Z,19.00
2019-03-23T12:02:25.265Z,18.90
2019-03-23T12:04:54.698Z,18.80
2019-03-23T12:07:23.866Z,18.70
2019-03-23T12:09:53.428Z,18.50
2019-03-23T12:15:11.493Z,18.80
2019-03-23T12:17:40.790Z,19.00
2019-03-23T12:20:10.325Z,19.20
2019-03-23T12:22:40.058Z,19.20
2019-03-23T12:25:09.237Z,19.10
2019-03-23T12:27:38.716Z,19.30
2019-03-23T12:30:12.025Z,19.30
2019-03-23T12:32:41.201Z,19.70
2019-03-23T12:35:10.375Z,19.80
2019-03-23T12:37:40.002Z,19.90
2019-03-23T12:40:09.771Z,19.80
2019-03-23T12:42:39.190Z,19.60
2019-03-23T12:45:08.450Z,19.70
2019-03-23T12:47:38.350Z,19.70
2019-03-23T12:50:08.391Z,19.70
2019-03-23T12:52:37.803Z,19.60
2019-03-23T12:55:07.327Z,19.80
2019-03-23T12:57:36.486Z,19.70
2019-03-23T13:00:06.676Z,19.90
2019-03-23T13:02:35.908Z,20.20
2019-03-23T13:05:05.817Z,20.10
2019-03-23T13:07:37.418Z,20.10
2019-03-23T13:10:06.413Z,19.80
2019-03-23T13:12:35.615Z,20.00
2019-03-23T13:15:06.073Z,20.10
2019-03-23T13:17:35.505Z,20.00
2019-03-23T13:20:05.581Z,19.90
2019-03-23T13:22:34.791Z,20.00
2019-03-23T13:25:04.382Z,20.00
2019-03-23T13:27:33.870Z,19.90
2019-03-23T13:30:03.038Z,19.90
2019-03-23T13:32:32.512Z,19.70
2019-03-23T13:35:01.741Z,19.60
2019-03-23T13:37:31.782Z,19.50
2019-03-23T13:40:01.052Z,19.60
2019-03-23T13:42:30.814Z,19.80
2019-03-23T13:45:00.616Z,19.80
2019-03-23T13:47:29.846Z,19.60
2019-03-23T13:49:59.581Z,19.60
2019-03-23T13:52:29.855Z,19.30
2019-03-23T13:54:59.046Z,19.10
2019-03-23T13:57:28.267Z,19.10
2019-03-23T13:59:58.029Z,19.30
2019-03-23T14:02:27.636Z,19.50
2019-03-23T14:04:57.008Z,19.40
2019-03-23T14:07:26.941Z,19.30
2019-03-23T14:09:56.566Z,19.40
2019-03-23T14:12:26.414Z,19.50
2019-03-23T14:14:55.670Z,19.30
2019-03-23T14:17:25.112Z,19.10
2019-03-23T14:19:55.397Z,19.10
2019-03-23T14:22:27.856Z,19.20
2019-03-23T14:24:57.397Z,19.20
2019-03-23T14:27:27.302Z,19.30
2019-03-23T14:29:56.557Z,19.30
2019-03-23T14:32:25.826Z,19.30
2019-03-23T14:34:58.003Z,19.10
2019-03-23T14:37:29.035Z,19.10
2019-03-23T14:39:58.350Z,19.10
2019-03-23T14:42:27.593Z,19.00
2019-03-23T14:44:57.322Z,19.10
2019-03-23T14:47:26.626Z,18.90
2019-03-23T14:49:56.870Z,18.90
2019-03-23T14:52:26.426Z,18.90
2019-03-23T14:54:55.662Z,18.90
2019-03-23T14:57:25.158Z,18.90
2019-03-23T14:59:54.433Z,18.90
2019-03-23T15:02:24.455Z,18.90
2019-03-23T15:04:54.173Z,18.70
2019-03-23T15:07:26.327Z,18.60
2019-03-23T15:09:55.594Z,18.40
2019-03-23T15:12:24.852Z,18.30
2019-03-23T15:14:54.381Z,18.10
2019-03-23T15:17:24.268Z,18.00
2019-03-23T15:19:54.073Z,17.90
2019-03-23T15:22:24.009Z,17.80
2019-03-23T15:24:53.939Z,17.60
2019-03-23T15:27:23.405Z,17.60
2019-03-23T15:29:53.133Z,17.40
2019-03-23T15:32:22.455Z,17.20
2019-03-23T15:34:51.869Z,17.10
2019-03-23T15:37:21.696Z,17.00
2019-03-23T15:39:51.194Z,17.00
2019-03-23T15:42:24.761Z,17.00
2019-03-23T15:44:51.989Z,16.70
2019-03-23T15:47:21.487Z,16.50
2019-03-23T15:49:53.724Z,16.30
2019-03-23T15:52:22.975Z,16.20
2019-03-23T15:54:52.119Z,16.10
2019-03-23T15:57:24.938Z,16.10
2019-03-23T15:59:54.266Z,15.90
2019-03-23T16:02:23.808Z,16.00
2019-03-23T16:04:53.078Z,15.90
2019-03-23T16:07:29.429Z,15.80
2019-03-23T16:09:55.832Z,15.60
2019-03-23T16:12:34.235Z,15.50
2019-03-23T16:14:56.072Z,15.60
2019-03-23T16:17:25.809Z,15.50
2019-03-23T16:19:57.184Z,15.50
2019-03-23T16:22:27.108Z,15.50
2019-03-23T16:24:56.377Z,15.50
2019-03-23T16:27:26.394Z,15.50
2019-03-23T16:29:55.731Z,15.40
2019-03-23T16:32:25.821Z,15.30
2019-03-23T16:34:55.532Z,15.30
2019-03-23T16:37:24.799Z,15.20
2019-03-23T16:39:54.027Z,15.10
2019-03-23T16:42:24.307Z,15.00
2019-03-23T16:44:53.598Z,14.80
2019-03-23T16:47:23.562Z,14.60
2019-03-23T16:49:52.895Z,14.40
2019-03-23T16:52:22.523Z,14.30
2019-03-23T16:54:51.762Z,14.20
2019-03-23T16:57:23.722Z,14.10
2019-03-23T16:59:53.459Z,14.00
2019-03-23T17:02:23.090Z,13.90
2019-03-23T17:04:53.048Z,13.70
2019-03-23T17:07:22.547Z,13.70
2019-03-23T17:09:52.073Z,13.60
2019-03-23T17:12:21.982Z,13.50
2019-03-23T17:14:51.262Z,13.50
2019-03-23T17:17:20.511Z,13.40
2019-03-23T17:19:50.103Z,13.30
2019-03-23T17:22:19.945Z,13.20
2019-03-23T17:24:49.585Z,13.10
2019-03-23T17:27:19.548Z,13.00
2019-03-23T17:29:49.250Z,12.90
2019-03-23T17:32:18.763Z,12.80
2019-03-23T17:34:52.111Z,12.80
2019-03-23T17:37:21.847Z,12.70
2019-03-23T17:39:51.038Z,12.60
2019-03-23T17:42:21.518Z,12.50
2019-03-23T17:44:51.075Z,12.50
2019-03-23T17:47:20.566Z,12.40
2019-03-23T17:49:50.165Z,12.30
2019-03-23T17:52:20.017Z,12.30
2019-03-23T17:54:49.941Z,12.20
2019-03-23T17:57:20.018Z,12.10
2019-03-23T17:59:49.622Z,12.00
2019-03-23T18:02:19.261Z,12.00
2019-03-23T18:04:49.661Z,11.90
2019-03-23T18:07:19.426Z,11.80
2019-03-23T18:09:49.769Z,11.70
2019-03-23T18:12:19.734Z,11.70
2019-03-23T18:14:49.657Z,11.60
2019-03-23T18:17:20.555Z,11.60
2019-03-23T18:19:49.920Z,11.50
2019-03-23T18:22:19.767Z,11.50
2019-03-23T18:24:49.221Z,11.50
2019-03-23T18:27:18.642Z,11.50
2019-03-23T18:29:48.099Z,11.60
2019-03-23T18:32:17.754Z,11.50
2019-03-23T18:34:47.439Z,11.50
2019-03-23T18:37:17.380Z,11.40
2019-03-23T18:39:46.980Z,11.40
2019-03-23T18:42:18.185Z,11.40
2019-03-23T18:44:47.666Z,11.30
2019-03-23T18:47:17.002Z,11.30
2019-03-23T18:49:46.650Z,11.20
2019-03-23T18:52:15.925Z,11.20
2019-03-23T18:54:46.562Z,11.10
2019-03-23T18:57:15.749Z,11.00
2019-03-23T18:59:45.709Z,11.00
2019-03-23T19:02:16.090Z,11.00
2019-03-23T19:04:46.442Z,11.00
2019-03-23T19:07:16.022Z,11.00
2019-03-23T19:09:45.473Z,10.90
2019-03-23T19:12:15.524Z,10.80
2019-03-23T19:14:44.915Z,10.80
2019-03-23T19:17:16.322Z,10.70
2019-03-23T19:19:48.642Z,10.70
2019-03-23T19:22:18.902Z,10.60
2019-03-23T19:24:53.132Z,10.60
2019-03-23T19:27:24.602Z,10.60
2019-03-23T19:29:57.199Z,10.50
2019-03-23T19:32:26.517Z,10.50
2019-03-23T19:35:00.233Z,10.40
2019-03-23T19:37:32.974Z,10.40
2019-03-23T19:40:02.338Z,10.40
2019-03-23T19:42:31.866Z,10.40
2019-03-23T19:45:01.668Z,10.30
2019-03-23T19:47:31.058Z,10.20
2019-03-23T19:50:01.065Z,10.20
2019-03-23T19:52:30.558Z,10.20
2019-03-23T19:55:01.292Z,10.20
2019-03-23T19:57:31.289Z,10.20
2019-03-23T20:00:00.858Z,10.20
2019-03-23T20:02:31.858Z,10.20
2019-03-23T20:05:01.688Z,10.10
2019-03-23T20:07:33.355Z,10.10
2019-03-23T20:10:02.587Z,10.00
2019-03-23T20:12:32.225Z,10.00
2019-03-23T20:15:01.874Z,10.00
2019-03-23T20:17:32.158Z,10.00
2019-03-23T20:20:01.503Z,9.90
2019-03-23T20:22:30.857Z,9.90
2019-03-23T20:25:01.709Z,9.80
2019-03-23T20:27:31.232Z,9.80
2019-03-23T20:30:00.794Z,9.80
2019-03-23T20:32:30.593Z,9.80
2019-03-23T20:35:00.822Z,9.70
2019-03-23T20:37:30.110Z,9.70
2019-03-23T20:40:00.187Z,9.70
2019-03-23T20:42:29.915Z,9.60
2019-03-23T20:44:59.789Z,9.60
2019-03-23T20:47:29.621Z,9.60
2019-03-23T20:49:59.611Z,9.60
2019-03-23T20:52:29.149Z,9.60
2019-03-23T20:54:58.433Z,9.60
2019-03-23T20:57:36.974Z,9.50
2019-03-23T21:00:00.121Z,9.50
2019-03-23T21:02:29.851Z,9.40
2019-03-23T21:04:59.287Z,9.40
2019-03-23T21:07:28.777Z,9.40
2019-03-23T21:09:58.904Z,9.40
2019-03-23T21:12:28.123Z,9.40
2019-03-23T21:14:57.891Z,9.30
2019-03-23T21:17:27.540Z,9.20
2019-03-23T21:19:57.589Z,9.20
2019-03-23T21:22:27.019Z,9.20
2019-03-23T21:24:56.983Z,9.20
2019-03-23T21:27:26.521Z,9.10
2019-03-23T21:29:56.511Z,9.10
2019-03-23T21:32:25.815Z,9.10
2019-03-23T21:34:55.100Z,9.10
2019-03-23T21:37:24.547Z,9.00
2019-03-23T21:39:54.502Z,9.00
2019-03-23T21:42:23.727Z,8.90
2019-03-23T21:44:53.230Z,8.90
2019-03-23T21:47:22.952Z,8.90
2019-03-23T21:49:52.381Z,8.80
2019-03-23T21:52:22.803Z,8.80
2019-03-23T21:54:52.608Z,8.80
2019-03-23T21:57:22.478Z,8.70
2019-03-23T21:59:51.945Z,8.60
2019-03-23T22:02:21.640Z,8.60
2019-03-23T22:04:50.941Z,8.60
2019-03-23T22:07:20.602Z,8.60
2019-03-23T22:09:50.136Z,8.50
2019-03-23T22:12:19.958Z,8.50
2019-03-23T22:14:50.253Z,8.50
2019-03-23T22:17:20.079Z,8.60
2019-03-23T22:19:49.721Z,8.60
2019-03-23T22:22:20.087Z,8.60
2019-03-23T22:24:49.795Z,8.50
2019-03-23T22:27:19.384Z,8.50
2019-03-23T22:29:48.883Z,8.40
2019-03-23T22:32:18.761Z,8.40
2019-03-23T22:34:49.303Z,8.40
2019-03-23T22:37:19.350Z,8.40
2019-03-23T22:39:48.830Z,8.40
2019-03-23T22:42:18.213Z,8.30
2019-03-23T22:44:52.540Z,8.40
2019-03-23T22:47:19.002Z,8.30
2019-03-23T22:49:49.575Z,8.30
2019-03-23T22:52:19.238Z,8.30
2019-03-23T22:54:49.521Z,8.30
2019-03-23T22:57:19.738Z,8.30
2019-03-23T22:59:49.635Z,8.20
2019-03-23T23:02:22.668Z,8.10
2019-03-23T23:04:52.371Z,8.10
2019-03-23T23:07:27.662Z,8.00
2019-03-23T23:09:57.648Z,8.00
2019-03-23T23:12:27.467Z,8.00
2019-03-23T23:15:04.180Z,8.00
2019-03-23T23:17:28.509Z,7.90
2019-03-23T23:19:58.100Z,7.90
2019-03-23T23:22:27.480Z,7.90
2019-03-23T23:24:57.327Z,7.90
2019-03-23T23:27:26.726Z,7.90
2019-03-23T23:29:56.158Z,7.80
2019-03-23T23:32:25.714Z,7.80
2019-03-23T23:34:55.001Z,7.80
2019-03-23T23:37:24.994Z,7.80
2019-03-23T23:39:54.644Z,7.80
2019-03-23T23:42:24.506Z,7.70
2019-03-23T23:44:53.788Z,7.80
2019-03-23T23:47:23.372Z,7.70
2019-03-23T23:49:53.195Z,7.70
2019-03-23T23:52:23.367Z,7.70
2019-03-23T23:54:53.153Z,7.70
2019-03-23T23:57:22.660Z,7.70
2019-03-23T23:59:52.184Z,7.60
